Flight Track Log - Related Links

Times and Time Zones

All times are in EDT time to prevent confusion due to time zone crossing. See the NKS331 flight status page for this flight to view local times or setup timezone preferences in your user account.

Time Position Orientation Groundspeed Altitude Reporting Facility
EDT Latitude Longitude Course Direction KTS MPH feet Rate Location/Type
Mon 09:50:07 PM 40.7540 -73.8390 311° West 160 184 1,600  Level FlightAware ADS-B
Mon 09:50:22 PM 40.7460 -73.8230 123° Southeast 180 207 2,000 1,500 Climbing FlightAware ADS-B
Mon 09:50:27 PM 40.7460 -73.8190 90° East 193 222 2,100 1,440 Climbing FlightAware ADS-B
Mon 09:50:47 PM 40.7550 -73.7940 65° Northeast 234 269 2,600 2,520 Climbing FlightAware ADS-B
Mon 09:51:17 PM 40.7790 -73.7640 43° Northeast 245 282 4,200 3,067 Climbing FlightAware ADS-B
Mon 09:51:32 PM 40.7950 -73.7510 32° Northeast 262 302 4,900 2,880 Climbing FlightAware ADS-B
Mon 09:51:42 PM 40.8060 -73.7490 North 266 306 5,400 3,450 Climbing FlightAware ADS-B
Mon 09:52:12 PM 40.8410 -73.7610 345° North 267 307 7,200 3,067 Climbing FlightAware ADS-B
Mon 09:52:27 PM 40.8550 -73.7780 317° Northwest 279 321 7,700 2,800 Climbing FlightAware ADS-B
Mon 09:52:42 PM 40.8692 -73.8030 307° West 286 329 8,600 3,097 Climbing FlightAware ADS-B
Mon 09:52:58 PM 40.8818 -73.8252 307° West 292 336 9,300 2,250 Climbing FlightAware ADS-B
Mon 09:53:14 PM 40.8945 -73.8482 306° West 303 349 9,800 1,375 Climbing FlightAware ADS-B
Mon 09:53:46 PM 40.9231 -73.8995 306° West 342 394 10,400 1,000 Climbing FlightAware ADS-B
Mon 09:54:14 PM 40.9504 -73.9474 307° West 350 403 10,800 789 Climbing FlightAware ADS-B
Mon 09:54:24 PM 40.9600 -73.9639 308° West 351 404 10,900 600 Climbing FlightAware ADS-B
Mon 09:54:44 PM 40.9812 -74.0003 308° West 358 412 11,100 581 Climbing FlightAware ADS-B
Mon 09:54:55 PM 40.9918 -74.0187 307° West 359 413 11,200 1,548 Climbing FlightAware ADS-B
Mon 09:55:15 PM 41.0120 -74.0543 307° West 361 415 11,900 2,087 Climbing FlightAware ADS-B
Mon 09:55:18 PM 41.0148 -74.0600 303° West 362 417 12,000 2,308 Climbing FlightAware ADS-B
Mon 09:55:28 PM 41.0215 -74.0783 296° West 365 420 12,400 2,727 Climbing FlightAware ADS-B
Mon 09:55:29 PM 41.0221 -74.0807 288° West 365 420 12,500 3,600 Climbing FlightAware ADS-B
Mon 09:55:38 PM 41.0262 -74.1005 285° West 364 419 13,000 3,000 Climbing FlightAware ADS-B
Mon 09:55:39 PM 41.0266 -74.1026 284° West 363 418 13,000 2,600 Level FlightAware ADS-B
Mon 09:56:08 PM 41.0383 -74.1665 284° West 367 422 14,300 2,710 Climbing FlightAware ADS-B
Mon 09:56:10 PM 41.0391 -74.1707 284° West 369 425 14,400 2,250 Climbing FlightAware ADS-B
Mon 09:56:40 PM 41.0511 -74.2354 284° West 375 432 15,500 2,364 Climbing FlightAware ADS-B
Mon 09:56:43 PM 41.0524 -74.2422 284° West 375 432 15,700 2,909 Climbing FlightAware ADS-B
Mon 09:57:13 PM 41.0651 -74.3096 284° West 372 428 17,100 2,533 Climbing FlightAware ADS-B
Mon 09:57:28 PM 41.0712 -74.3418 284° West 374 430 17,600 2,200 Climbing FlightAware ADS-B
Mon 09:57:43 PM 41.0779 -74.3776 284° West 380 437 18,200 2,250 Climbing FlightAware ADS-B
Mon 09:58:00 PM 41.0847 -74.4138 284° West 380 437 18,800 2,063 Climbing FlightAware ADS-B
Mon 09:58:15 PM 41.0911 -74.4489 284° West 386 444 19,300 1,742 Climbing FlightAware ADS-B
Mon 09:58:31 PM 41.0979 -74.4859 284° West 392 451 19,700 1,200 Climbing FlightAware ADS-B
Mon 09:58:45 PM 41.1040 -74.5196 284° West 402 463 19,900 1,029 Climbing FlightAware ADS-B
Mon 09:59:06 PM 41.1132 -74.5700 284° West 412 474 20,300 1,355 Climbing FlightAware ADS-B
Mon 09:59:16 PM 41.1178 -74.5950 284° West 414 476 20,600 1,862 Climbing FlightAware ADS-B
Mon 09:59:35 PM 41.1274 -74.6423 285° West 416 479 21,200 2,000 Climbing FlightAware ADS-B
Mon 09:59:37 PM 41.1286 -74.6473 288° West 414 476 21,300 1,600 Climbing FlightAware ADS-B
Mon 09:59:50 PM 41.1363 -74.6773 289° West 419 482 21,600 1,459 Climbing FlightAware ADS-B
Mon 10:00:14 PM 41.1552 -74.7355 293° West 425 489 22,200 1,500 Climbing FlightAware ADS-B
Mon 10:00:26 PM 41.1663 -74.7637 298° West 426 490 22,500 1,571 Climbing FlightAware ADS-B
Mon 10:00:56 PM 41.1961 -74.8316 300° West 432 497 23,300 1,574 Climbing FlightAware ADS-B
Mon 10:01:27 PM 41.2264 -74.9013 300° West 433 498 24,100 1,377 Climbing FlightAware ADS-B
Mon 10:01:57 PM 41.2568 -74.9719 300° West 440 506 24,700 1,475 Climbing FlightAware ADS-B
Mon 10:02:28 PM 41.2878 -75.0436 300° West 439 505 25,600 1,645 Climbing FlightAware ADS-B
Mon 10:02:59 PM 41.3196 -75.1176 300° West 441 507 26,400 1,333 Climbing FlightAware ADS-B
Mon 10:03:31 PM 41.3520 -75.1926 300° West 446 513 27,000 1,355 Climbing FlightAware ADS-B
Mon 10:04:01 PM 41.3828 -75.2643 300° West 444 511 27,800 1,574 Climbing FlightAware ADS-B
Mon 10:04:32 PM 41.4142 -75.3379 300° West 442 509 28,600 1,477 Climbing FlightAware ADS-B
Mon 10:05:06 PM 41.4476 -75.4162 300° West 439 505 29,400 1,292 Climbing FlightAware ADS-B
Mon 10:05:37 PM 41.4775 -75.4909 298° West 441 507 30,000 1,452 Climbing FlightAware ADS-B
Mon 10:06:08 PM 41.5009 -75.5695 292° West 438 504 30,900 1,688 Climbing FlightAware ADS-B
Mon 10:06:41 PM 41.5243 -75.6508 291° West 432 497 31,800 1,477 Climbing FlightAware ADS-B
Mon 10:07:13 PM 41.5472 -75.7309 291° West 428 493 32,500 1,125 Climbing FlightAware ADS-B
Mon 10:07:45 PM 41.5692 -75.8082 291° West 432 497 33,000 968 Climbing FlightAware ADS-B
Mon 10:08:15 PM 41.5910 -75.8847 291° West 433 498 33,500 885 Climbing FlightAware ADS-B
Mon 10:08:46 PM 41.6127 -75.9608 291° West 436 502 33,900 1,031 Climbing FlightAware ADS-B
Mon 10:09:19 PM 41.6360 -76.0432 291° West 433 498 34,600 1,238 Climbing FlightAware ADS-B
Mon 10:09:49 PM 41.6571 -76.1183 291° West 432 497 35,200 1,279 Climbing FlightAware ADS-B
Mon 10:10:20 PM 41.6788 -76.1948 291° West 423 487 35,900 762 Climbing FlightAware ADS-B
Mon 10:10:52 PM 41.7007 -76.2737 290° West 419 482 36,000 95 Climbing FlightAware ADS-B
Mon 10:11:23 PM 41.7212 -76.3474 290° West 420 483 36,000  Level FlightAware ADS-B
Mon 10:11:57 PM 41.7451 -76.4313 291° West 424 488 36,000  Level FlightAware ADS-B
Mon 10:12:28 PM 41.7660 -76.5064 290° West 423 487 36,000  Level FlightAware ADS-B
Mon 10:12:58 PM 41.7869 -76.5822 290° West 423 487 36,000  Level FlightAware ADS-B
Mon 10:13:29 PM 41.8072 -76.6564 290° West 423 487 36,000  Level FlightAware ADS-B
Mon 10:14:06 PM 41.8323 -76.7481 290° West 425 489 36,000  Level FlightAware ADS-B
Mon 10:14:38 PM 41.8537 -76.8263 290° West 426 490 36,000  Level FlightAware ADS-B
Mon 10:15:32 PM 41.8870 -76.9490 290° West 426 490 36,000  Level FlightAware ADS-B
Mon 10:16:17 PM 41.9180 -77.0640 290° West 428 493 36,000  Level FlightAware ADS-B
Mon 10:16:57 PM 41.9450 -77.1630 290° West 428 493 36,000  Level FlightAware ADS-B
Mon 10:17:42 PM 41.9760 -77.2750 290° West 428 493 36,000  Level FlightAware ADS-B
Mon 10:18:22 PM 42.0020 -77.3760 289° West 428 493 36,000  Level FlightAware ADS-B
Mon 10:19:02 PM 42.0290 -77.4750 290° West 429 494 36,000  Level FlightAware ADS-B
Mon 10:19:47 PM 42.0590 -77.5880 290° West 428 493 36,000  Level FlightAware ADS-B
Mon 10:20:27 PM 42.0850 -77.6870 290° West 428 493 36,000  Level FlightAware ADS-B
Mon 10:21:07 PM 42.1120 -77.7880 290° West 426 490 36,000  Level FlightAware ADS-B
Mon 10:21:52 PM 42.1410 -77.9010 289° West 421 484 36,000  Level FlightAware ADS-B
Mon 10:22:32 PM 42.1670 -77.9990 290° West 416 479 36,000  Level FlightAware ADS-B
Mon 10:23:12 PM 42.1930 -78.0960 290° West 414 476 36,000  Level FlightAware ADS-B
Mon 10:23:57 PM 42.2210 -78.2070 289° West 416 479 36,000  Level FlightAware ADS-B
Mon 10:24:37 PM 42.2460 -78.3040 289° West 419 482 36,000  Level FlightAware ADS-B
Mon 10:25:22 PM 42.2750 -78.4150 289° West 421 484 36,000  Level FlightAware ADS-B
Mon 10:26:02 PM 42.3000 -78.5140 289° West 423 487 36,000  Level FlightAware ADS-B
Mon 10:26:42 PM 42.3250 -78.6140 289° West 424 488 36,000  Level FlightAware ADS-B
Mon 10:27:27 PM 42.3540 -78.7290 289° West 424 488 36,000  Level FlightAware ADS-B
Mon 10:28:07 PM 42.3800 -78.8280 290° West 424 488 36,000  Level FlightAware ADS-B
Mon 10:28:47 PM 42.4050 -78.9280 289° West 422 486 36,000  Level FlightAware ADS-B
Mon 10:29:32 PM 42.4330 -79.0410 289° West 422 486 36,000  Level FlightAware ADS-B
Mon 10:30:12 PM 42.4560 -79.1330 289° West 417 480 36,000  Level FlightAware ADS-B
Mon 10:30:57 PM 42.4820 -79.2460 287° West 416 479 36,000  Level FlightAware ADS-B
Mon 10:31:37 PM 42.4950 -79.3530 279° West 420 483 36,000  Level FlightAware ADS-B
Mon 10:32:17 PM 42.5000 -79.4600 274° West 421 484 36,000  Level FlightAware ADS-B
Mon 10:33:02 PM 42.5060 -79.5770 274° West 422 486 36,000  Level FlightAware ADS-B
Mon 10:33:42 PM 42.5110 -79.6810 274° West 420 483 36,000  Level FlightAware ADS-B
Mon 10:34:27 PM 42.5160 -79.7990 273° West 417 480 36,000  Level FlightAware ADS-B
Mon 10:35:07 PM 42.5210 -79.9050 274° West 415 478 36,000  Level FlightAware ADS-B
Mon 10:35:52 PM 42.5260 -80.0200 273° West 414 476 36,000  Level FlightAware ADS-B
Mon 10:36:32 PM 42.5310 -80.1250 274° West 415 478 36,000  Level FlightAware ADS-B
Mon 10:37:12 PM 42.5350 -80.2280 273° West 417 480 36,000  Level FlightAware ADS-B
Mon 10:37:57 PM 42.5400 -80.3440 273° West 414 476 36,000  Level FlightAware ADS-B
Mon 10:38:37 PM 42.5440 -80.4500 273° West 413 475 36,000  Level FlightAware ADS-B
Mon 10:39:22 PM 42.5490 -80.5620 274° West 411 473 36,000  Level FlightAware ADS-B
Mon 10:40:02 PM 42.5530 -80.6660 273° West 411 473 36,000  Level FlightAware ADS-B
Mon 10:40:47 PM 42.5570 -80.7800 273° West 413 475 36,000  Level FlightAware ADS-B
Mon 10:41:27 PM 42.5610 -80.8860 273° West 414 476 36,000  Level FlightAware ADS-B
Mon 10:42:07 PM 42.5650 -80.9880 273° West 415 478 36,000  Level FlightAware ADS-B
Mon 10:42:52 PM 42.5690 -81.1070 273° West 414 476 36,000  Level FlightAware ADS-B
Mon 10:43:32 PM 42.5720 -81.2040 272° West 413 475 36,000  Level FlightAware ADS-B
Mon 10:44:12 PM 42.5760 -81.3130 273° West 413 475 36,000  Level FlightAware ADS-B
Mon 10:44:57 PM 42.5810 -81.4220 274° West 414 476 36,000  Level FlightAware ADS-B
Mon 10:45:37 PM 42.5980 -81.5320 282° West 417 480 36,000  Level FlightAware ADS-B
Mon 10:46:12 PM 42.6100 -81.6010 283° West 416 479 36,000  Level FlightAware ADS-B
Mon 10:46:57 PM 42.6310 -81.7210 283° West 415 478 36,000  Level FlightAware ADS-B
Mon 10:47:37 PM 42.6510 -81.8330 284° West 414 476 36,000  Level FlightAware ADS-B
Mon 10:48:42 PM 42.6760 -81.9780 283° West 414 476 36,000  Level FlightAware ADS-B
Mon 10:49:17 PM 42.6930 -82.0760 283° West 415 478 36,000  Level FlightAware ADS-B
Mon 10:50:02 PM 42.7120 -82.1850 283° West 416 479 36,000  Level FlightAware ADS-B
Mon 10:50:42 PM 42.7290 -82.2870 283° West 417 480 36,000  Level FlightAware ADS-B
Mon 10:51:27 PM 42.7490 -82.4010 283° West 419 482 36,000  Level FlightAware ADS-B
Mon 10:52:12 PM 42.7680 -82.5190 282° West 421 484 36,000  Level FlightAware ADS-B
Mon 10:52:52 PM 42.7870 -82.6290 283° West 423 487 36,000  Level FlightAware ADS-B
Mon 10:53:57 PM 42.8150 -82.8010 283° West 422 486 36,000  Level FlightAware ADS-B
Mon 10:54:52 PM 42.8370 -82.9330 283° West 419 482 36,000  Level FlightAware ADS-B
Mon 10:55:37 PM 42.8570 -83.0570 282° West 417 480 36,000  Level FlightAware ADS-B
Mon 10:56:17 PM 42.8630 -83.1570 275° West 418 481 36,000  Level FlightAware ADS-B
Mon 10:56:57 PM 42.8660 -83.2690 272° West 418 481 36,000  Level FlightAware ADS-B
Mon 10:57:47 PM 42.8680 -83.3880 271° West 420 483 36,000  Level FlightAware ADS-B
Mon 10:58:27 PM 42.8700 -83.4960 271° West 420 483 36,000  Level FlightAware ADS-B
Mon 10:59:12 PM 42.8720 -83.6100 271° West 421 484 36,000  Level FlightAware ADS-B
Mon 10:59:47 PM 42.8740 -83.7110 272° West 424 488 36,000  Level FlightAware ADS-B
Mon 11:00:42 PM 42.8760 -83.8560 271° West 425 489 36,000  Level FlightAware ADS-B
Mon 11:01:22 PM 42.8780 -83.9590 272° West 424 488 36,000  Level FlightAware ADS-B
Mon 11:02:12 PM 42.8800 -84.0920 271° West 422 486 36,000  Level FlightAware ADS-B
Mon 11:02:57 PM 42.8810 -84.2050 271° West 420 483 36,000  Level FlightAware ADS-B
Mon 11:03:37 PM 42.8820 -84.3410 271° West 415 478 36,000  Level FlightAware ADS-B
Mon 11:04:22 PM 42.8830 -84.4550 271° West 413 475 36,000  Level FlightAware ADS-B
Mon 11:05:02 PM 42.8840 -84.5600 271° West 412 474 36,000  Level FlightAware ADS-B
Mon 11:05:42 PM 42.8760 -84.6620 264° West 413 475 36,000  Level FlightAware ADS-B
Mon 11:06:27 PM 42.8640 -84.7800 262° West 413 475 36,000  Level FlightAware ADS-B
Mon 11:07:07 PM 42.8540 -84.8790 262° West 413 475 36,000  Level FlightAware ADS-B
Mon 11:07:52 PM 42.8410 -84.9960 261° West 413 475 36,000  Level FlightAware ADS-B
Mon 11:08:32 PM 42.8300 -85.0990 262° West 414 476 36,000  Level FlightAware ADS-B
Mon 11:09:12 PM 42.8190 -85.2030 262° West 414 476 36,000 -1,059 Level FlightAware ADS-B
Mon 11:09:57 PM 42.8060 -85.3200 261° West 413 475 34,500 -2,259 Descending FlightAware ADS-B
Mon 11:10:37 PM 42.7960 -85.4180 262° West 411 473 32,800 -2,850 Descending FlightAware ADS-B
Mon 11:11:17 PM 42.7820 -85.5260 260° West 419 482 30,700 -2,682 Descending FlightAware ADS-B
Mon 11:12:02 PM 42.7610 -85.6380 256° West 409 471 29,000 -2,047 Descending FlightAware ADS-B
Mon 11:12:42 PM 42.7440 -85.7350 257° West 393 452 27,800 -1,976 Descending FlightAware ADS-B
Mon 11:13:27 PM 42.7250 -85.8400 256° West 387 445 26,200 -2,047 Descending FlightAware ADS-B
Mon 11:14:07 PM 42.7070 -85.9370 256° West 373 429 24,900 -2,047 Descending FlightAware ADS-B
Mon 11:14:52 PM 42.6890 -86.0370 256° West 366 421 23,300 -2,118 Descending FlightAware ADS-B
Mon 11:15:32 PM 42.6730 -86.1240 256° West 359 413 21,900 -2,047 Descending FlightAware ADS-B
Mon 11:16:17 PM 42.6540 -86.2240 256° West 350 403 20,400 -1,341 Descending FlightAware ADS-B
Mon 11:16:57 PM 42.6390 -86.3050 256° West 350 403 20,000 -300 Descending FlightAware ADS-B
Mon 11:17:37 PM 42.6230 -86.3930 256° West 349 402 20,000 -353 Level FlightAware ADS-B
Mon 11:18:22 PM 42.6050 -86.4870 255° West 354 407 19,500 -1,624 Descending FlightAware ADS-B
Mon 11:19:02 PM 42.5890 -86.5740 256° West 357 411 17,700 -2,325 Descending FlightAware ADS-B
Mon 11:19:42 PM 42.5720 -86.6610 255° West 343 395 16,400 -1,412 Descending FlightAware ADS-B
Mon 11:20:27 PM 42.5550 -86.7430 254° West 319 367 15,700 -1,059 Descending FlightAware ADS-B
Mon 11:21:07 PM 42.5340 -86.8220 250° West 312 359 14,900 -1,125 Descending FlightAware ADS-B
Mon 11:21:47 PM 42.5140 -86.8940 249° West 307 353 14,200 -1,059 Descending FlightAware ADS-B
Mon 11:22:32 PM 42.4920 -86.9770 250° West 319 367 13,400 -1,059 Descending FlightAware ADS-B
Mon 11:23:12 PM 42.4720 -87.0500 250° West 321 369 12,700 -1,059 Descending FlightAware ADS-B
Mon 11:23:57 PM 42.4480 -87.1360 249° West 321 369 11,900 -1,059 Descending FlightAware ADS-B
Mon 11:24:37 PM 42.4280 -87.2110 250° West 313 360 11,200 -1,129 Descending FlightAware ADS-B
Mon 11:25:22 PM 42.4040 -87.2980 250° West 320 368 10,300 -776 Descending FlightAware ADS-B
Mon 11:26:02 PM 42.3780 -87.3720 245° Southwest 321 369 10,100 -141 Descending FlightAware ADS-B
Mon 11:26:47 PM 42.3510 -87.4520 245° Southwest 321 369 10,100  Level FlightAware ADS-B
Mon 11:27:27 PM 42.3260 -87.5240 245° Southwest 321 369 10,100  Level FlightAware ADS-B
Mon 11:28:07 PM 42.3030 -87.5940 246° West 288 331 10,100 -429 Level FlightAware ADS-B
Mon 11:28:37 PM 42.2870 -87.6420 246° West 273 314 9,600 -1,200 Descending FlightAware ADS-B
Mon 11:29:02 PM 42.2750 -87.6790 246° West 271 312 9,000 -1,418 Descending FlightAware ADS-B
Mon 11:29:32 PM 42.2590 -87.7260 245° Southwest 265 305 8,300 -1,500 Descending FlightAware ADS-B
Mon 11:30:02 PM 42.2490 -87.7750 255° West 261 300 7,500 -1,309 Descending FlightAware ADS-B
Mon 11:30:27 PM 42.2430 -87.8140 258° West 253 291 7,100 -436 Descending FlightAware ADS-B
Mon 11:30:57 PM 42.2360 -87.8580 258° West 261 300 7,100 -700 Level FlightAware ADS-B
Mon 11:31:27 PM 42.2270 -87.9080 256° West 258 297 6,400 -1,418 Descending FlightAware ADS-B
Mon 11:31:52 PM 42.2210 -87.9450 258° West 256 295 5,800 -1,200 Descending FlightAware ADS-B
Mon 11:32:22 PM 42.2080 -87.9900 249° West 247 284 5,300 -873 Descending FlightAware ADS-B
Mon 11:32:47 PM 42.1910 -88.0150 227° Southwest 228 262 5,000 -655 Descending FlightAware ADS-B
Mon 11:33:17 PM 42.1690 -88.0450 225° Southwest 212 244 4,700 -500 Descending FlightAware ADS-B
Mon 11:33:47 PM 42.1500 -88.0740 229° Southwest 194 223 4,500 -600 Descending FlightAware ADS-B
Mon 11:33:57 PM 42.1430 -88.0810 217° Southwest 188 216 4,300 -900 Descending FlightAware ADS-B
Mon 11:34:07 PM 42.1360 -88.0830 192° South 184 212 4,200 -600 Descending FlightAware ADS-B
Mon 11:34:27 PM 42.1200 -88.0770 164° South 180 207 4,000 -800 Descending FlightAware ADS-B
Mon 11:34:52 PM 42.1040 -88.0610 143° Southeast 182 209 3,600 -982 Descending FlightAware ADS-B
Mon 11:35:22 PM 42.0840 -88.0380 140° Southeast 166 191 3,100 -900 Descending FlightAware ADS-B
Mon 11:35:52 PM 42.0670 -88.0200 142° Southeast 142 163 2,700 -764 Descending FlightAware ADS-B
Mon 11:36:17 PM 42.0560 -88.0070 139° Southeast 132 152 2,400 -655 Descending FlightAware ADS-B
Mon 11:36:47 PM 42.0420 -87.9920 141° Southeast 130 150 2,100 -655 Descending FlightAware ADS-B
Mon 11:37:12 PM 42.0320 -87.9790 136° Southeast 132 152 1,800 -655 Descending FlightAware ADS-B
Mon 11:37:42 PM 42.0160 -87.9620 142° Southeast 133 153 1,500 -700 Descending FlightAware ADS-B
Mon 11:38:12 PM 42.0020 -87.9470 141° Southeast 132 152 1,100 -764 Descending FlightAware ADS-B
Mon 11:38:37 PM 41.9900 -87.9330 139° Southeast 134 154 800 -720 Descending FlightAware ADS-B

Login

Don't have an account? Register now (free) for customized features, flight alerts, and more!